Aviation Digital Data Service (ADDS)

Output produced by METARs form (2140 UTC 19 April 2021)
found at http://aviationweather.gov/metar/data/
 
EDDW 192120Z 04006KT CAVOK 11/07 Q1019
EDDW 192050Z 02009KT CAVOK 12/07 Q1019 NOSIG
EDDW 192020Z 32004KT CAVOK 10/06 Q1019 NOSIG
EDDW 191950Z 30003KT CAVOK 10/07 Q1020 NOSIG
EDDW 191920Z 27003KT CAVOK 11/07 Q1020 NOSIG
EDDW 191850Z 24004KT 9999 SCT045 12/07 Q1020 NOSIG
EDDW 191820Z 24004KT 9999 BKN045 12/08 Q1019 NOSIG
EDDW 191750Z 24004KT 9999 FEW048 13/08 Q1020 NOSIG
EDDW 191720Z 24004KT 9999 FEW048 13/08 Q1020 NOSIG
EDDW 191650Z 23003KT 9999 FEW048 15/07 Q1020 NOSIG
EDDW 191620Z 21003KT 170V250 9999 FEW038 15/07 Q1020 NOSIG
EDDW 191550Z VRB03KT 9999 FEW030 BKN040 15/07 Q1020 NOSIG
EDDW 191520Z VRB03KT 9999 SCT037 15/07 Q1020 NOSIG
EDDW 191450Z VRB03KT 9999 SCT035 15/07 Q1020 NOSIG
EDDW 191420Z 17005KT 130V220 9999 SCT036 15/07 Q1020 NOSIG
EDDW 191350Z VRB05KT 9999 FEW029 SCT041 16/07 Q1020 NOSIG
EDDW 191320Z VRB05KT 9999 SCT032 15/07 Q1021 NOSIG
EDDW 191250Z VRB03KT 9999 FEW027 14/06 Q1021 NOSIG
EDDW 191220Z 13005KT 050V190 9999 SCT024 13/07 Q1021 NOSIG
EDDW 191150Z 09005KT 040V140 9999 SCT020 13/06 Q1021 NOSIG
EDDW 191120Z 10005KT 070V140 9999 SCT019 12/07 Q1021 NOSIG
EDDW 191050Z 09005KT 060V130 9999 SCT017 12/07 Q1022 NOSIG
EDDW 191020Z 10004KT 070V160 9999 BKN015 11/07 Q1022 NOSIG
EDDW 190950Z 07005KT 020V130 9999 BKN014 11/07 Q1022 BECMG SCT025
EDDW 190920Z 10005KT 070V130 9999 BKN012 10/06 Q1022 BECMG SCT012
EDDW 190850Z 10005KT 050V140 9999 BKN011 09/06 Q1022 BECMG SCT012
EDDW 190820Z 09005KT 050V140 9999 BKN007 09/06 Q1022 BECMG SCT012
EDDW 190750Z 09005KT 060V140 9999 BKN007 08/06 Q1022 BECMG BKN012
EDDW 190720Z 08005KT 030V130 9999 BKN006 08/06 Q1022 BECMG BKN012
EDDW 190650Z 07008KT 9999 BKN006 08/06 Q1022 BECMG BKN012
EDDW 190620Z 09006KT 050V140 9000 BKN006 08/06 Q1021 BECMG BKN012
EDDW 190550Z 09007KT 050V120 7000 BKN005 07/06 Q1021 BECMG BKN010
EDDW 190520Z 10006KT 060V130 6000 BKN005 07/06 Q1021 BECMG BKN010
EDDW 190450Z 08008KT 5000 BR BKN004 07/06 Q1021 TEMPO 2500
EDDW 190420Z 08008KT 050V110 3500 BR BKN003 07/06 Q1021 BECMG 2500
EDDW 190350Z 08005KT 3500 BR BKN003 07/06 Q1021 BECMG 2500
EDDW 190320Z 05004KT 5000 BR BKN004 07/06 Q1021
EDDW 190250Z 08006KT 7000 BKN004 07/06 Q1021
EDDW 190220Z 08007KT 9000 BKN006 07/06 Q1021
EDDW 190150Z 08006KT 9999 BKN007 07/06 Q1021
EDDW 190120Z 06007KT 9999 SCT012 07/05 Q1021
EDDW 190050Z 08005KT 9999 BKN016 06/04 Q1021
EDDW 190020Z 04004KT CAVOK 08/05 Q1021
EDDW 182350Z 05005KT 9999 FEW038 09/06 Q1021
EDDW 182320Z 06006KT 9999 BKN038 09/06 Q1021
EDDW 182250Z 05007KT 9999 BKN044 09/07 Q1021
EDDW 182220Z 06005KT 9999 -RA OVC044 09/07 Q1021
EDDW 182150Z 07006KT 9999 -RA NSC 10/07 Q1021
EDDW 182120Z 07010KT 9999 -RA BKN048 10/06 Q1021
EDDW 182050Z 07010KT 9999 -RA BKN046 11/07 Q1021 TEMPO SHRA SCT025CB
EDDW 182020Z 06007KT 9999 -RA NSC 12/07 Q1021 NOSIG
EDDW 181950Z 07008KT CAVOK 13/06 Q1021 NOSIG
EDDW 181920Z 05006KT 9999 FEW040 13/06 Q1021 NOSIG
EDDW 181850Z 08004KT 9999 FEW040 13/06 Q1021 NOSIG
EDDW 181820Z 05008KT 9999 FEW040 14/06 Q1021 NOSIG
EDDW 181750Z 05008KT 9999 FEW038 15/06 Q1020 NOSIG
EDDW 181720Z 04007KT 9999 FEW038 15/06 Q1020 NOSIG
EDDW 181650Z 04008KT 360V070 9999 FEW037 15/06 Q1020 NOSIG
EDDW 181620Z 02008KT 9999 FEW037 16/07 Q1020 NOSIG
EDDW 181550Z 03008KT 9999 FEW037 16/07 Q1020 NOSIG
EDDW 181520Z 03006KT 9999 FEW040 16/06 Q1020 NOSIG
EDDW 181450Z 07003KT 310V110 9999 SCT040 16/06 Q1020 NOSIG
EDDW 181420Z 05007KT 010V080 9999 SCT043 16/07 Q1020 NOSIG
EDDW 181350Z 06009G19KT 030V100 9999 SCT043 16/06 Q1020 NOSIG
EDDW 181320Z 06007KT 020V090 9999 FEW045 15/05 Q1020 NOSIG
EDDW 181250Z 03006KT 280V080 9999 FEW045 16/06 Q1021 NOSIG
EDDW 181220Z 03009KT 360V080 CAVOK 15/05 Q1021 NOSIG
EDDW 181150Z 02008KT 310V060 CAVOK 15/05 Q1021 NOSIG
EDDW 181120Z 01008KT 330V060 CAVOK 14/05 Q1021 NOSIG
EDDW 181050Z 35008KT 310V040 CAVOK 14/05 Q1021 NOSIG
EDDW 181020Z 02005KT 310V090 CAVOK 13/05 Q1022 NOSIG
EDDW 180950Z 01005KT 270V080 CAVOK 12/04 Q1022 NOSIG
TAF EDDW 191700Z 1918/2018 VRB03KT CAVOK 
     PROB30 
     TEMPO 2003/2007 1500 BCFG 
     BECMG 2006/2008 05005KT